Time;durP1;ratioP1;P1;durP2;ratioP2;P2;SDS_P1;SDS_P2;PMS_P1;PMS_P2;Temp;Humidity;BMP_temperature;BMP_pressure;BME280_temperature;BME280_humidity;BME280_pressure;Samples;Min_cycle;Max_cycle;Signal;HPM_P1;HPM_P2
2022/01/11 00:01:40;;;;;;;3.47;1.63;;;;;;;;;;5091985;28;20387;-70
2022/01/11 00:04:44;;;;;;;4.47;1.80;;;;;;;;;;5079483;28;20495;-70
2022/01/11 00:07:49;;;;;;;3.08;1.35;;;;;;;;;;5079214;28;20040;-70
2022/01/11 00:11:02;;;;;;;6.47;1.83;;;;;;;;;;5079231;28;20541;-70
2022/01/11 00:14:06;;;;;;;2.53;1.20;;;;;;;;;;5091655;28;20068;-70
2022/01/11 00:17:10;;;;;;;2.35;1.20;;;;;;;;;;5091750;28;20588;-70
2022/01/11 00:20:16;;;;;;;4.10;1.40;;;;;;;;;;5091512;28;20368;-70
2022/01/11 00:26:27;;;;;;;3.17;1.52;;;;;;;;;;5079062;28;20040;-70
2022/01/11 00:29:33;;;;;;;3.30;1.30;;;;;;;;;;5091313;28;20464;-70
2022/01/11 00:32:48;;;;;;;7.93;2.28;;;;;;;;;;5078758;28;20040;-71
2022/01/11 00:36:00;;;;;;;5.03;1.70;;;;;;;;;;5079073;28;20039;-70
2022/01/11 00:39:04;;;;;;;;;;;;;;;;;;5091726;28;20480;-70
2022/01/11 00:42:08;;;;;;;5.28;1.65;;;;;;;;;;5091397;28;19915;-70
2022/01/11 00:45:13;;;;;;;6.25;2.00;;;;;;;;;;5090864;28;20036;-70
2022/01/11 00:48:18;;;;;;;5.28;1.85;;;;;;;;;;5078978;28;20036;-70
2022/01/11 00:51:22;;;;;;;6.53;2.33;;;;;;;;;;5091341;28;20040;-70
2022/01/11 00:54:26;;;;;;;3.17;1.58;;;;;;;;;;5078785;28;20036;-70
2022/01/11 00:57:31;;;;;;;4.53;1.90;;;;;;;;;;5078903;28;20044;-70
2022/01/11 01:00:36;;;;;;;4.20;1.85;;;;;;;;;;5090740;28;20032;-70
2022/01/11 01:03:41;;;;;;;8.23;1.75;;;;;;;;;;5090984;28;20052;-70
2022/01/11 01:06:45;;;;;;;7.45;2.58;;;;;;;;;;5078443;28;20369;-70
2022/01/11 01:10:19;;;;;;;5.75;2.08;;;;;;;;;;5078389;28;20036;-70
2022/01/11 01:13:22;;;;;;;2.92;1.45;;;;;;;;;;5078479;28;20039;-70
2022/01/11 01:16:31;;;;;;;3.88;1.50;;;;;;;;;;5066732;28;20044;-70
2022/01/11 01:19:42;;;;;;;3.90;1.30;;;;;;;;;;5078356;28;20036;-70
2022/01/11 01:22:50;;;;;;;3.50;1.40;;;;;;;;;;5090530;28;20048;-70
2022/01/11 01:25:55;;;;;;;2.45;1.40;;;;;;;;;;5066961;28;20040;-70
2022/01/11 01:29:00;;;;;;;2.40;1.48;;;;;;;;;;5078234;28;20040;-70
2022/01/11 01:32:04;;;;;;;3.03;1.40;;;;;;;;;;5066788;28;20043;-70
2022/01/11 01:35:09;;;;;;;4.43;1.80;;;;;;;;;;5090551;28;20040;-70
2022/01/11 01:38:13;;;;;;;6.70;1.92;;;;;;;;;;5069508;28;20044;-70
2022/01/11 01:41:19;;;;;;;5.88;2.00;;;;;;;;;;5058384;28;20492;-70
2022/01/11 01:44:25;;;;;;;4.07;1.77;;;;;;;;;;5057843;28;20048;-70
2022/01/11 01:47:29;;;;;;;4.63;1.40;;;;;;;;;;5069581;28;20036;-70
2022/01/11 01:50:34;;;;;;;4.00;1.50;;;;;;;;;;5070456;28;20397;-70
2022/01/11 01:53:47;;;;;;;3.22;1.45;;;;;;;;;;5069618;28;20476;-70
2022/01/11 01:56:51;;;;;;;5.47;1.50;;;;;;;;;;5070334;28;20136;-70
2022/01/11 01:59:55;;;;;;;3.58;1.40;;;;;;;;;;5073210;28;20037;-70
2022/01/11 02:03:08;;;;;;;6.10;1.52;;;;;;;;;;5073087;28;20037;-70
2022/01/11 02:06:20;;;;;;;3.05;1.48;;;;;;;;;;5074081;28;20032;-70
2022/01/11 02:09:24;;;;;;;6.75;1.55;;;;;;;;;;5073072;28;20040;-70
2022/01/11 02:12:29;;;;;;;3.05;1.20;;;;;;;;;;5073777;28;20037;-70
2022/01/11 02:15:34;;;;;;;3.05;1.60;;;;;;;;;;5072976;28;20037;-70
2022/01/11 02:18:38;;;;;;;3.17;1.50;;;;;;;;;;5072831;28;20044;-70
2022/01/11 02:21:49;;;;;;;6.60;2.37;;;;;;;;;;5050781;28;20040;-70
2022/01/11 02:24:54;;;;;;;4.22;1.58;;;;;;;;;;5061280;28;20048;-70
2022/01/11 02:28:01;;;;;;;5.78;1.77;;;;;;;;;;5061298;28;20036;-70
2022/01/11 02:31:12;;;;;;;4.25;1.67;;;;;;;;;;5072754;28;20040;-70
2022/01/11 02:34:17;;;;;;;4.70;1.70;;;;;;;;;;5061123;28;20029;-70
2022/01/11 02:37:41;;;;;;;5.82;1.88;;;;;;;;;;5072413;28;20500;-70
2022/01/11 02:40:50;;;;;;;4.03;1.63;;;;;;;;;;5072412;28;20036;-70
2022/01/11 02:43:54;;;;;;;5.30;1.60;;;;;;;;;;5072356;28;20048;-70
2022/01/11 02:47:01;;;;;;;4.43;1.60;;;;;;;;;;5060857;28;20369;-71
2022/01/11 02:50:10;;;;;;;5.95;1.73;;;;;;;;;;5060787;28;20040;-70
2022/01/11 02:53:20;;;;;;;8.15;1.75;;;;;;;;;;5071989;28;20337;-70
2022/01/11 02:56:25;;;;;;;8.20;1.92;;;;;;;;;;5072471;28;20044;-70
2022/01/11 02:59:29;;;;;;;5.25;1.70;;;;;;;;;;5060448;28;20037;-70
2022/01/11 03:02:33;;;;;;;5.88;1.75;;;;;;;;;;5071801;28;20041;-70
2022/01/11 03:05:42;;;;;;;6.30;1.48;;;;;;;;;;5072164;28;20045;-70
2022/01/11 03:08:47;;;;;;;4.97;1.77;;;;;;;;;;5072407;28;20032;-70
2022/01/11 03:11:55;;;;;;;4.45;1.80;;;;;;;;;;5071835;28;20037;-70
2022/01/11 03:15:01;;;;;;;4.25;1.73;;;;;;;;;;5071889;28;20044;-70
2022/01/11 03:18:05;;;;;;;3.53;1.30;;;;;;;;;;5071860;28;20036;-70
2022/01/11 03:21:13;;;;;;;4.63;1.30;;;;;;;;;;5060188;28;20033;-70
2022/01/11 03:24:17;;;;;;;5.88;1.60;;;;;;;;;;5071386;28;20052;-70
2022/01/11 03:27:22;;;;;;;6.72;1.88;;;;;;;;;;5059807;28;20029;-70
2022/01/11 03:30:26;;;;;;;5.88;1.60;;;;;;;;;;5071426;28;20044;-70
2022/01/11 03:33:33;;;;;;;6.53;1.63;;;;;;;;;;5048845;28;20041;-70
2022/01/11 03:36:37;;;;;;;5.53;1.52;;;;;;;;;;5062284;28;20508;-70
2022/01/11 03:39:42;;;;;;;6.47;1.80;;;;;;;;;;5079868;28;20039;-70
2022/01/11 03:42:46;;;;;;;4.35;1.25;;;;;;;;;;5079758;28;20044;-70
2022/01/11 03:45:52;;;;;;;2.70;1.20;;;;;;;;;;5079718;28;20040;-70
2022/01/11 03:48:58;;;;;;;5.07;1.40;;;;;;;;;;5068464;28;20036;-70
2022/01/11 03:52:05;;;;;;;3.63;1.15;;;;;;;;;;5068207;28;20042;-70
2022/01/11 03:55:12;;;;;;;2.78;1.20;;;;;;;;;;5079657;28;20043;-70
2022/01/11 03:58:26;;;;;;;6.72;1.55;;;;;;;;;;5079579;28;20036;-70
2022/01/11 04:01:30;;;;;;;4.82;1.50;;;;;;;;;;5091757;28;20040;-70
2022/01/11 04:04:35;;;;;;;3.85;1.30;;;;;;;;;;5079347;28;20051;-70
2022/01/11 04:07:40;;;;;;;3.50;1.50;;;;;;;;;;5079918;28;20036;-70
2022/01/11 04:10:46;;;;;;;4.40;1.75;;;;;;;;;;5079420;28;20483;-70
2022/01/11 04:13:50;;;;;;;5.32;1.58;;;;;;;;;;5067891;28;20040;-70
2022/01/11 04:16:55;;;;;;;7.45;1.48;;;;;;;;;;5079074;28;20032;-70
2022/01/11 04:20:00;;;;;;;3.20;1.65;;;;;;;;;;5078136;28;20369;-70
2022/01/11 04:23:06;;;;;;;3.90;1.80;;;;;;;;;;5078850;28;20036;-70
2022/01/11 04:26:11;;;;;;;6.22;1.55;;;;;;;;;;5078863;28;20040;-70
2022/01/11 04:29:17;;;;;;;5.28;1.90;;;;;;;;;;5079076;28;20040;-70
2022/01/11 04:32:21;;;;;;;3.58;1.30;;;;;;;;;;5078884;28;20036;-70
2022/01/11 04:35:27;;;;;;;4.85;1.83;;;;;;;;;;5079060;28;20044;-70
2022/01/11 04:38:32;;;;;;;5.13;1.95;;;;;;;;;;5066962;28;20048;-70
2022/01/11 04:41:39;;;;;;;5.20;1.80;;;;;;;;;;5067378;28;20040;-70
2022/01/11 04:44:44;;;;;;;3.92;1.75;;;;;;;;;;5078659;28;20044;-70
2022/01/11 04:47:52;;;;;;;4.03;1.50;;;;;;;;;;5078883;28;20036;-70
2022/01/11 04:50:57;;;;;;;4.20;1.42;;;;;;;;;;5078828;28;20047;-70
2022/01/11 04:54:02;;;;;;;4.95;1.65;;;;;;;;;;5091241;28;20036;-70
2022/01/11 04:57:07;;;;;;;3.60;1.63;;;;;;;;;;5078708;28;20048;-70
2022/01/11 05:00:13;;;;;;;4.03;1.83;;;;;;;;;;5078837;28;20032;-70
2022/01/11 05:03:19;;;;;;;5.85;2.00;;;;;;;;;;5078495;28;20056;-70
2022/01/11 05:06:26;;;;;;;6.68;2.30;;;;;;;;;;5067151;28;20052;-70
2022/01/11 05:09:31;;;;;;;5.28;1.95;;;;;;;;;;5078231;28;20036;-70
2022/01/11 05:12:38;;;;;;;8.90;1.98;;;;;;;;;;5078468;28;20032;-70
2022/01/11 05:15:43;;;;;;;8.90;1.88;;;;;;;;;;5078599;28;20032;-70
2022/01/11 05:18:48;;;;;;;5.15;1.80;;;;;;;;;;5066831;28;20568;-70
2022/01/11 05:21:52;;;;;;;6.95;2.15;;;;;;;;;;5078475;28;20028;-70
2022/01/11 05:24:57;;;;;;;4.93;2.50;;;;;;;;;;5078181;28;20052;-70
2022/01/11 05:28:02;;;;;;;7.22;2.17;;;;;;;;;;5066875;28;20028;-70
2022/01/11 05:31:06;;;;;;;6.85;2.17;;;;;;;;;;5078807;28;20060;-70
2022/01/11 05:34:11;;;;;;;6.00;2.30;;;;;;;;;;5082385;28;20032;-71
2022/01/11 05:37:16;;;;;;;5.88;2.20;;;;;;;;;;5070426;28;20040;-70
2022/01/11 05:40:21;;;;;;;8.40;3.22;;;;;;;;;;5082091;28;20369;-70
2022/01/11 05:43:27;;;;;;;7.65;2.50;;;;;;;;;;5081878;28;20044;-70
2022/01/11 05:46:31;;;;;;;6.80;2.80;;;;;;;;;;5082089;28;20044;-70
2022/01/11 05:49:36;;;;;;;3.70;2.17;;;;;;;;;;5070100;28;20032;-70
2022/01/11 05:52:42;;;;;;;8.18;2.38;;;;;;;;;;5094398;28;20373;-70
2022/01/11 05:55:46;;;;;;;7.28;2.75;;;;;;;;;;5070160;28;20039;-70
2022/01/11 05:58:52;;;;;;;4.43;2.42;;;;;;;;;;5081568;28;20032;-71
2022/01/11 06:02:00;;;;;;;9.77;4.82;;;;;;;;;;5094289;28;20040;-70
2022/01/11 06:05:06;;;;;;;5.82;2.70;;;;;;;;;;5081500;28;20044;-70
2022/01/11 06:08:16;;;;;;;4.22;2.40;;;;;;;;;;5069670;28;20476;-70
2022/01/11 06:11:20;;;;;;;6.57;2.78;;;;;;;;;;5070016;28;20043;-70
2022/01/11 06:14:26;;;;;;;7.47;2.78;;;;;;;;;;5081574;28;20040;-70
2022/01/11 06:17:30;;;;;;;6.00;2.72;;;;;;;;;;5081440;28;20048;-70
2022/01/11 06:20:35;;;;;;;7.75;2.90;;;;;;;;;;5081376;28;20040;-70
2022/01/11 06:23:42;;;;;;;6.32;2.97;;;;;;;;;;5070269;28;20040;-70
2022/01/11 06:26:47;;;;;;;5.95;2.83;;;;;;;;;;5079684;28;20047;-70
2022/01/11 06:29:51;;;;;;;10.52;3.28;;;;;;;;;;5080767;28;20031;-70
2022/01/11 06:32:56;;;;;;;8.27;3.97;;;;;;;;;;5080934;28;20039;-70
2022/01/11 06:36:01;;;;;;;10.30;3.42;;;;;;;;;;5080770;28;20376;-70
2022/01/11 06:39:05;;;;;;;5.38;2.92;;;;;;;;;;5080936;28;20513;-66
2022/01/11 06:42:15;;;;;;;11.40;3.63;;;;;;;;;;5081553;28;20036;-66
2022/01/11 06:45:21;;;;;;;7.85;3.55;;;;;;;;;;5080951;28;20506;-66
2022/01/11 06:48:26;;;;;;;13.65;3.50;;;;;;;;;;5069245;28;20357;-66
2022/01/11 06:51:31;;;;;;;7.47;3.15;;;;;;;;;;5080850;28;20047;-65
2022/01/11 06:54:36;;;;;;;6.63;3.22;;;;;;;;;;5080679;28;20032;-65
2022/01/11 06:57:40;;;;;;;12.82;3.35;;;;;;;;;;5080813;28;20032;-65
2022/01/11 07:00:44;;;;;;;12.43;5.25;;;;;;;;;;5080531;28;20393;-65
2022/01/11 07:03:51;;;;;;;7.30;3.40;;;;;;;;;;5069004;28;20419;-65
2022/01/11 07:07:07;;;;;;;16.73;4.35;;;;;;;;;;5080863;28;20032;-65
2022/01/11 07:10:13;;;;;;;13.40;3.80;;;;;;;;;;5080070;28;20048;-65
2022/01/11 07:13:18;;;;;;;12.52;3.53;;;;;;;;;;5080241;28;20054;-65
2022/01/11 07:16:22;;;;;;;7.70;3.40;;;;;;;;;;5079930;28;20036;-66
2022/01/11 07:19:29;;;;;;;9.70;4.03;;;;;;;;;;5080011;28;20036;-65
2022/01/11 07:22:38;;;;;;;9.88;4.05;;;;;;;;;;5069485;28;20364;-64
2022/01/11 07:25:44;;;;;;;14.90;4.80;;;;;;;;;;5080206;28;20043;-66
2022/01/11 07:28:50;;;;;;;12.43;4.63;;;;;;;;;;5092268;28;20526;-65
2022/01/11 07:31:56;;;;;;;13.52;4.63;;;;;;;;;;5079749;28;20055;-66
2022/01/11 07:35:01;;;;;;;11.52;4.65;;;;;;;;;;5079794;28;20591;-65
2022/01/11 07:38:07;;;;;;;19.88;5.32;;;;;;;;;;5067889;28;20059;-66
2022/01/11 07:41:11;;;;;;;12.32;5.63;;;;;;;;;;5079626;28;20591;-66
2022/01/11 07:44:35;;;;;;;10.10;4.63;;;;;;;;;;5062401;28;20059;-67
2022/01/11 07:47:40;;;;;;;13.23;5.20;;;;;;;;;;5092131;28;20498;-67
2022/01/11 07:50:45;;;;;;;15.57;5.03;;;;;;;;;;5067637;28;20036;-65
2022/01/11 07:53:52;;;;;;;12.73;5.18;;;;;;;;;;5079284;28;20040;-65
2022/01/11 07:56:58;;;;;;;14.00;5.35;;;;;;;;;;5078684;28;20484;-66
2022/01/11 08:00:06;;;;;;;8.85;4.18;;;;;;;;;;5079303;28;20040;-66
2022/01/11 08:03:19;;;;;;;12.23;4.45;;;;;;;;;;5080570;28;20044;-67
2022/01/11 08:06:35;;;;;;;14.23;4.78;;;;;;;;;;5067635;28;20044;-66
2022/01/11 08:09:56;;;;;;;12.52;4.78;;;;;;;;;;5079265;28;20040;-66
2022/01/11 08:13:07;;;;;;;11.85;4.93;;;;;;;;;;5079194;28;20043;-66
2022/01/11 08:16:12;;;;;;;12.32;5.07;;;;;;;;;;5067450;28;20051;-66
2022/01/11 08:19:17;;;;;;;14.70;6.15;;;;;;;;;;5079029;28;20410;-66
2022/01/11 08:22:22;;;;;;;21.42;6.45;;;;;;;;;;5078834;28;20043;-66
2022/01/11 08:25:33;;;;;;;;;;;;;;;;;;5079897;28;20384;-66
2022/01/11 08:28:43;;;;;;;11.20;5.25;;;;;;;;;;5067898;28;19919;-66
2022/01/11 08:31:49;;;;;;;13.93;4.63;;;;;;;;;;5079168;28;20040;-66
2022/01/11 08:34:54;;;;;;;17.40;5.22;;;;;;;;;;5078894;28;20047;-66
2022/01/11 08:37:59;;;;;;;16.15;4.95;;;;;;;;;;5091036;28;20047;-66
2022/01/11 08:41:04;;;;;;;15.07;4.72;;;;;;;;;;5079133;28;20031;-66
2022/01/11 08:44:11;;;;;;;12.07;5.22;;;;;;;;;;5078785;28;20044;-66
2022/01/11 08:47:16;;;;;;;9.75;4.50;;;;;;;;;;5078938;28;20393;-66
2022/01/11 08:50:30;;;;;;;16.38;5.30;;;;;;;;;;5079533;28;20066;-66
2022/01/11 08:53:38;;;;;;;13.57;5.20;;;;;;;;;;5079260;28;20040;-66
2022/01/11 08:56:49;;;;;;;18.73;6.40;;;;;;;;;;5068114;28;20051;-66
2022/01/11 08:59:53;;;;;;;19.23;6.32;;;;;;;;;;5078806;28;20036;-66
2022/01/11 09:02:58;;;;;;;12.35;5.22;;;;;;;;;;5078524;28;20036;-66
2022/01/11 09:06:09;;;;;;;12.75;5.65;;;;;;;;;;5068537;28;20047;-66
2022/01/11 09:09:15;;;;;;;14.70;5.07;;;;;;;;;;5059698;28;20044;-66
2022/01/11 09:12:19;;;;;;;12.77;4.95;;;;;;;;;;5082822;28;20522;-66
2022/01/11 09:15:27;;;;;;;11.68;4.70;;;;;;;;;;5060010;28;20043;-66
2022/01/11 09:18:34;;;;;;;10.45;4.93;;;;;;;;;;5094931;28;20044;-65
2022/01/11 09:21:39;;;;;;;10.80;4.78;;;;;;;;;;5070732;28;20399;-66
2022/01/11 09:24:47;;;;;;;8.38;4.60;;;;;;;;;;5082531;28;20056;-66
2022/01/11 09:27:54;;;;;;;10.85;4.90;;;;;;;;;;5082352;28;20028;-66
2022/01/11 09:31:04;;;;;;;9.70;4.68;;;;;;;;;;5082913;28;20060;-66
2022/01/11 09:34:11;;;;;;;18.95;4.90;;;;;;;;;;5082708;28;20028;-66
2022/01/11 09:37:16;;;;;;;23.60;4.70;;;;;;;;;;5094514;28;20044;-66
2022/01/11 09:40:20;;;;;;;13.63;5.22;;;;;;;;;;5082139;28;20036;-66
2022/01/11 09:43:30;;;;;;;17.02;6.03;;;;;;;;;;5082258;28;20040;-66
2022/01/11 09:46:41;;;;;;;10.68;4.53;;;;;;;;;;5070607;28;20063;-66
2022/01/11 09:49:45;;;;;;;8.00;3.90;;;;;;;;;;5081806;28;20538;-66
2022/01/11 09:52:51;;;;;;;8.65;4.75;;;;;;;;;;5081770;28;20048;-66
2022/01/11 09:55:55;;;;;;;12.48;4.65;;;;;;;;;;5081438;28;20397;-66
2022/01/11 09:59:04;;;;;;;11.52;4.70;;;;;;;;;;5081363;28;20039;-66
2022/01/11 10:02:27;;;;;;;10.13;4.05;;;;;;;;;;5094052;28;20028;-66
2022/01/11 10:05:52;;;;;;;11.32;5.00;;;;;;;;;;5081515;28;20040;-66
2022/01/11 10:09:09;;;;;;;8.73;3.85;;;;;;;;;;5081348;28;20051;-66
2022/01/11 10:12:14;;;;;;;12.13;5.18;;;;;;;;;;5080208;28;20494;-67
2022/01/11 10:15:32;;;;;;;11.35;5.43;;;;;;;;;;5081623;28;20037;-67
2022/01/11 10:18:46;;;;;;;18.38;5.93;;;;;;;;;;5080950;28;20040;-66
2022/01/11 10:21:55;;;;;;;13.80;5.82;;;;;;;;;;5070034;28;20424;-67
2022/01/11 10:25:08;;;;;;;9.57;4.82;;;;;;;;;;5058810;28;20520;-67
2022/01/11 10:28:18;;;;;;;12.10;5.83;;;;;;;;;;5068262;28;20404;-66
2022/01/11 10:31:34;;;;;;;14.23;5.03;;;;;;;;;;5069301;28;20064;-67
2022/01/11 10:34:39;;;;;;;13.23;5.45;;;;;;;;;;5080884;28;20495;-67
2022/01/11 10:37:45;;;;;;;10.40;4.93;;;;;;;;;;5080324;28;20059;-67
2022/01/11 10:40:51;;;;;;;13.55;6.22;;;;;;;;;;5080592;28;20119;-67
2022/01/11 10:43:57;;;;;;;9.40;4.78;;;;;;;;;;5080722;28;20057;-66
2022/01/11 10:47:03;;;;;;;13.68;5.95;;;;;;;;;;5069288;28;20040;-66
2022/01/11 10:50:08;;;;;;;16.17;5.68;;;;;;;;;;5080782;28;20036;-66
2022/01/11 10:53:13;;;;;;;14.10;6.28;;;;;;;;;;5069279;28;20048;-66
2022/01/11 10:56:19;;;;;;;11.07;4.85;;;;;;;;;;5080498;28;20036;-67
2022/01/11 10:59:36;;;;;;;11.32;4.95;;;;;;;;;;5080644;28;20047;-67
2022/01/11 11:02:41;;;;;;;17.00;5.63;;;;;;;;;;5080634;28;20044;-67
2022/01/11 11:05:53;;;;;;;15.57;7.75;;;;;;;;;;5080269;28;20055;-66
2022/01/11 11:09:16;;;;;;;16.27;5.13;;;;;;;;;;5069497;28;20480;-66
2022/01/11 11:12:31;;;;;;;15.77;6.22;;;;;;;;;;5070444;28;20040;-67
2022/01/11 11:15:40;;;;;;;17.15;5.90;;;;;;;;;;5080473;28;20036;-66
2022/01/11 11:19:04;;;;;;;18.40;6.50;;;;;;;;;;5068724;28;20138;-66
2022/01/11 11:22:25;;;;;;;14.38;5.80;;;;;;;;;;5070930;28;20028;-66
2022/01/11 11:25:29;;;;;;;14.65;5.85;;;;;;;;;;5079847;28;20056;-67
2022/01/11 11:28:33;;;;;;;13.48;5.47;;;;;;;;;;5080039;28;20047;-67
2022/01/11 11:31:37;;;;;;;19.70;5.93;;;;;;;;;;5092581;28;20055;-66
2022/01/11 11:34:42;;;;;;;16.70;5.20;;;;;;;;;;5079566;28;20048;-66
2022/01/11 11:37:47;;;;;;;14.38;5.85;;;;;;;;;;5091236;28;20048;-66
2022/01/11 11:40:53;;;;;;;17.05;7.53;;;;;;;;;;5067704;28;20032;-66
2022/01/11 11:44:05;;;;;;;19.67;6.82;;;;;;;;;;5092041;28;20036;-65
2022/01/11 11:47:10;;;;;;;15.38;6.72;;;;;;;;;;5092013;28;20036;-66
2022/01/11 11:50:16;;;;;;;16.73;6.40;;;;;;;;;;5092317;28;20032;-65
2022/01/11 11:53:40;;;;;;;13.55;5.78;;;;;;;;;;5091897;28;20040;-67
2022/01/11 11:56:47;;;;;;;12.27;5.10;;;;;;;;;;5092177;28;20044;-68
2022/01/11 11:59:54;;;;;;;7.93;4.18;;;;;;;;;;5091758;28;20401;-66
2022/01/11 12:03:00;;;;;;;14.75;5.38;;;;;;;;;;5091054;28;20040;-66
2022/01/11 12:06:24;;;;;;;19.95;5.68;;;;;;;;;;5066190;28;20057;-70
2022/01/11 12:09:42;;;;;;;14.52;6.22;;;;;;;;;;5090219;28;20062;-66
2022/01/11 12:12:50;;;;;;;11.45;5.50;;;;;;;;;;5067580;28;20039;-65
2022/01/11 12:15:53;;;;;;;10.75;5.13;;;;;;;;;;5078635;28;20047;-65
2022/01/11 12:18:59;;;;;;;15.27;5.70;;;;;;;;;;5091298;28;20040;-66
2022/01/11 12:22:06;;;;;;;14.32;5.90;;;;;;;;;;5091766;28;20475;-66
2022/01/11 12:25:26;;;;;;;18.27;6.95;;;;;;;;;;5091362;28;20052;-65
2022/01/11 12:28:31;;;;;;;12.40;6.47;;;;;;;;;;5078706;28;20040;-65
2022/01/11 12:31:40;;;;;;;9.60;4.30;;;;;;;;;;5091632;28;20040;-66
2022/01/11 12:34:48;;;;;;;11.80;4.60;;;;;;;;;;5079443;28;20483;-69
2022/01/11 12:38:05;;;;;;;13.35;4.78;;;;;;;;;;5079099;28;20052;-68
2022/01/11 12:41:29;;;;;;;21.73;5.13;;;;;;;;;;5090751;28;20047;-68
2022/01/11 12:45:35;;;;;;;16.73;5.38;;;;;;;;;;5078957;28;20055;-66
2022/01/11 12:47:58;;;;;;;16.73;7.57;;;;;;;;;;5078621;28;20040;-65
2022/01/11 12:51:06;;;;;;;15.95;5.45;;;;;;;;;;5078776;28;20487;-66
2022/01/11 12:54:15;;;;;;;12.23;5.55;;;;;;;;;;5091282;28;20051;-66
2022/01/11 12:57:21;;;;;;;14.02;5.30;;;;;;;;;;5091398;28;20047;-67
2022/01/11 13:00:28;;;;;;;13.95;4.63;;;;;;;;;;5091451;28;20039;-66
2022/01/11 13:03:33;;;;;;;16.10;5.13;;;;;;;;;;5091302;28;20043;-66
2022/01/11 13:06:38;;;;;;;20.20;6.10;;;;;;;;;;5091018;28;20040;-65
2022/01/11 13:09:45;;;;;;;13.88;5.63;;;;;;;;;;5090909;28;20036;-65
2022/01/11 13:13:11;;;;;;;13.43;4.85;;;;;;;;;;5078896;28;20411;-66
2022/01/11 13:16:30;;;;;;;11.60;5.38;;;;;;;;;;5090784;28;20040;-65
2022/01/11 13:19:41;;;;;;;15.82;5.35;;;;;;;;;;5090515;28;20036;-68
2022/01/11 13:23:10;;;;;;;13.65;5.43;;;;;;;;;;5091176;28;20032;-68
2022/01/11 13:26:18;;;;;;;23.17;5.70;;;;;;;;;;5078931;28;20066;-71
2022/01/11 13:29:23;;;;;;;12.43;5.72;;;;;;;;;;5091087;28;20051;-70
2022/01/11 13:32:27;;;;;;;15.43;5.80;;;;;;;;;;5091062;28;20476;-66
2022/01/11 13:35:31;;;;;;;18.77;6.13;;;;;;;;;;5090621;28;20044;-67
2022/01/11 13:38:36;;;;;;;11.07;5.03;;;;;;;;;;5090432;28;20052;-66
2022/01/11 13:41:48;;;;;;;12.93;5.47;;;;;;;;;;5090804;28;20036;-66
2022/01/11 13:44:52;;;;;;;13.70;6.03;;;;;;;;;;5090568;28;20040;-66
2022/01/11 13:48:07;;;;;;;25.27;5.70;;;;;;;;;;5090672;28;20039;-66
2022/01/11 13:51:11;;;;;;;13.50;5.18;;;;;;;;;;5090667;28;20036;-65
2022/01/11 13:54:16;;;;;;;16.17;5.90;;;;;;;;;;5081966;28;20040;-66
2022/01/11 13:57:23;;;;;;;12.30;5.60;;;;;;;;;;5094564;28;20387;-66
2022/01/11 14:00:36;;;;;;;23.00;5.65;;;;;;;;;;5070384;28;20043;-66
2022/01/11 14:03:40;;;;;;;14.65;5.90;;;;;;;;;;5094216;28;20045;-66
2022/01/11 14:06:46;;;;;;;22.30;6.47;;;;;;;;;;5094467;28;20048;-65
2022/01/11 14:09:57;;;;;;;11.35;6.15;;;;;;;;;;5093934;28;20028;-65
2022/01/11 14:13:05;;;;;;;16.85;7.85;;;;;;;;;;5081600;28;20047;-66
2022/01/11 14:16:09;;;;;;;18.55;7.93;;;;;;;;;;5081516;28;20094;-65
2022/01/11 14:19:17;;;;;;;16.02;6.55;;;;;;;;;;5081792;28;20044;-65
2022/01/11 14:22:35;;;;;;;14.15;5.90;;;;;;;;;;5094131;28;20036;-66
2022/01/11 14:25:42;;;;;;;18.38;6.95;;;;;;;;;;5081136;28;20393;-66
2022/01/11 14:28:50;;;;;;;18.58;5.57;;;;;;;;;;5081141;28;20039;-66
2022/01/11 14:32:02;;;;;;;15.63;8.10;;;;;;;;;;5093909;28;20039;-65
2022/01/11 14:35:08;;;;;;;17.75;5.63;;;;;;;;;;5093595;28;20036;-66
2022/01/11 14:38:16;;;;;;;17.90;6.00;;;;;;;;;;5069248;28;20056;-66
2022/01/11 14:41:23;;;;;;;21.30;7.00;;;;;;;;;;5081010;28;20044;-66
2022/01/11 14:44:28;;;;;;;17.85;7.07;;;;;;;;;;5093029;28;20400;-66
2022/01/11 14:47:50;;;;;;;13.73;6.63;;;;;;;;;;5092785;28;20047;-66
2022/01/11 14:50:54;;;;;;;17.15;6.93;;;;;;;;;;5080500;28;20044;-66
2022/01/11 14:53:59;;;;;;;19.90;7.53;;;;;;;;;;5080586;28;20036;-66
2022/01/11 14:57:09;;;;;;;14.68;6.32;;;;;;;;;;5093018;28;20039;-66
2022/01/11 15:00:24;;;;;;;13.70;7.07;;;;;;;;;;5070022;28;20146;-66
2022/01/11 15:03:28;;;;;;;17.35;5.95;;;;;;;;;;5080479;28;20032;-66
2022/01/11 15:06:37;;;;;;;13.93;5.88;;;;;;;;;;5092736;28;20509;-66
2022/01/11 15:09:42;;;;;;;15.15;6.88;;;;;;;;;;5092664;28;20381;-67
2022/01/11 15:12:46;;;;;;;16.65;5.97;;;;;;;;;;5079597;28;20078;-65
2022/01/11 15:15:50;;;;;;;18.05;6.75;;;;;;;;;;5092772;28;20040;-65
2022/01/11 15:18:55;;;;;;;14.85;5.45;;;;;;;;;;5092638;28;20044;-65
2022/01/11 15:21:59;;;;;;;17.15;6.68;;;;;;;;;;5092389;28;20040;-66
2022/01/11 15:25:09;;;;;;;18.27;7.25;;;;;;;;;;5092286;28;20044;-67
2022/01/11 15:28:13;;;;;;;14.75;6.57;;;;;;;;;;5068538;28;20496;-66
2022/01/11 15:31:18;;;;;;;14.15;5.95;;;;;;;;;;5080127;28;20044;-67
2022/01/11 15:34:23;;;;;;;12.32;5.93;;;;;;;;;;5080081;28;20432;-69
2022/01/11 15:37:27;;;;;;;14.07;6.88;;;;;;;;;;5079440;28;20052;-68
2022/01/11 15:40:31;;;;;;;14.68;6.95;;;;;;;;;;5079816;28;20209;-68
2022/01/11 15:43:36;;;;;;;18.35;6.07;;;;;;;;;;5091876;28;20507;-66
2022/01/11 15:46:41;;;;;;;18.33;6.57;;;;;;;;;;5091963;28;20048;-68
2022/01/11 15:49:45;;;;;;;23.45;6.72;;;;;;;;;;5091998;28;20036;-69
2022/01/11 15:52:50;;;;;;;16.60;6.20;;;;;;;;;;5067799;28;20051;-67
2022/01/11 15:55:55;;;;;;;68.97;27.08;;;;;;;;;;5091427;28;20111;-66
2022/01/11 15:59:00;;;;;;;17.05;7.63;;;;;;;;;;5091622;28;20138;-66
2022/01/11 16:02:04;;;;;;;20.20;6.72;;;;;;;;;;5079201;28;20036;-66
2022/01/11 16:05:08;;;;;;;20.20;8.02;;;;;;;;;;5091647;28;20032;-66
2022/01/11 16:08:13;;;;;;;13.95;5.70;;;;;;;;;;5091742;28;20054;-66
2022/01/11 16:11:18;;;;;;;19.20;6.70;;;;;;;;;;5091608;28;20502;-66
2022/01/11 16:14:23;;;;;;;26.58;12.73;;;;;;;;;;5078656;28;20036;-66
2022/01/11 16:17:27;;;;;;;20.23;9.32;;;;;;;;;;5090716;28;20039;-66
2022/01/11 16:20:32;;;;;;;36.00;18.02;;;;;;;;;;5091313;28;20104;-66
2022/01/11 16:23:37;;;;;;;18.85;9.68;;;;;;;;;;5090472;28;20050;-66
2022/01/11 16:26:41;;;;;;;23.38;7.82;;;;;;;;;;5091392;28;20051;-65
2022/01/11 16:29:46;;;;;;;19.35;6.82;;;;;;;;;;5091261;28;20054;-66
2022/01/11 16:32:50;;;;;;;24.77;7.80;;;;;;;;;;5091219;28;20048;-65
2022/01/11 16:35:54;;;;;;;19.63;8.57;;;;;;;;;;5091075;28;20418;-66
2022/01/11 16:39:01;;;;;;;15.88;6.60;;;;;;;;;;5090596;28;20067;-66
2022/01/11 16:45:28;;;;;;;34.53;13.50;;;;;;;;;;5090863;28;20063;-66
2022/01/11 16:48:33;;;;;;;63.47;21.98;;;;;;;;;;5090847;28;20047;-66
2022/01/11 16:51:37;;;;;;;28.13;12.23;;;;;;;;;;5067105;28;20051;-66
2022/01/11 16:54:42;;;;;;;25.85;13.30;;;;;;;;;;5090892;28;20055;-67
2022/01/11 16:57:46;;;;;;;15.23;6.68;;;;;;;;;;5090733;28;20070;-66
2022/01/11 17:00:51;;;;;;;21.15;8.88;;;;;;;;;;5091002;28;20044;-66
2022/01/11 17:03:55;;;;;;;22.48;8.88;;;;;;;;;;5090723;28;20039;-64
2022/01/11 17:06:59;;;;;;;17.95;9.65;;;;;;;;;;5090301;28;20055;-66
2022/01/11 17:10:05;;;;;;;33.70;10.50;;;;;;;;;;5090831;28;20395;-66
2022/01/11 17:13:09;;;;;;;22.35;9.18;;;;;;;;;;5090706;28;20410;-66
2022/01/11 17:16:14;;;;;;;20.25;8.65;;;;;;;;;;5066514;28;20393;-66
2022/01/11 17:19:19;;;;;;;19.60;7.40;;;;;;;;;;5078025;28;20072;-67
2022/01/11 17:22:23;;;;;;;20.67;8.50;;;;;;;;;;5078094;28;20492;-66
2022/01/11 17:25:29;;;;;;;23.75;9.18;;;;;;;;;;5077141;28;20636;-63
2022/01/11 17:28:33;;;;;;;25.23;11.77;;;;;;;;;;5080044;28;20040;-68
2022/01/11 17:31:38;;;;;;;16.40;7.50;;;;;;;;;;5093490;28;20043;-68
2022/01/11 17:34:42;;;;;;;18.05;6.90;;;;;;;;;;5094222;28;20039;-68
2022/01/11 17:37:47;;;;;;;18.30;6.95;;;;;;;;;;5094194;28;20055;-69
2022/01/11 17:40:51;;;;;;;17.00;7.18;;;;;;;;;;5093846;28;20124;-69
2022/01/11 17:43:55;;;;;;;31.70;10.18;;;;;;;;;;5094124;28;20031;-69
2022/01/11 17:47:00;;;;;;;20.33;7.30;;;;;;;;;;5081415;28;20043;-65
2022/01/11 17:50:05;;;;;;;24.45;9.27;;;;;;;;;;5094004;28;20055;-66
2022/01/11 17:53:09;;;;;;;24.50;8.65;;;;;;;;;;5094277;28;20051;-66
2022/01/11 17:56:13;;;;;;;21.33;8.90;;;;;;;;;;5094075;28;20074;-65
2022/01/11 17:59:18;;;;;;;21.65;9.20;;;;;;;;;;5093772;28;20036;-65
2022/01/11 18:02:22;;;;;;;27.63;12.90;;;;;;;;;;5094019;28;20036;-68
2022/01/11 18:05:27;;;;;;;21.02;8.80;;;;;;;;;;5093610;28;20055;-67
2022/01/11 18:08:36;;;;;;;21.15;9.43;;;;;;;;;;5093608;28;20036;-71
2022/01/11 18:11:40;;;;;;;40.00;15.55;;;;;;;;;;5092866;28;20150;-71
2022/01/11 18:14:45;;;;;;;27.70;10.95;;;;;;;;;;5093109;28;20055;-71
2022/01/11 18:17:50;;;;;;;27.42;11.73;;;;;;;;;;5080066;28;20047;-71
2022/01/11 18:20:54;;;;;;;18.48;8.88;;;;;;;;;;5093316;28;20043;-71
2022/01/11 18:23:58;;;;;;;25.90;11.82;;;;;;;;;;5080637;28;20044;-71
2022/01/11 18:27:03;;;;;;;29.15;12.15;;;;;;;;;;5080470;28;20514;-71
2022/01/11 18:30:09;;;;;;;23.67;11.15;;;;;;;;;;5093445;28;20043;-70
2022/01/11 18:33:17;;;;;;;34.88;15.48;;;;;;;;;;5092887;28;20360;-73
2022/01/11 18:36:22;;;;;;;24.75;9.68;;;;;;;;;;5092969;28;20047;-70
2022/01/11 18:39:28;;;;;;;21.92;8.63;;;;;;;;;;5092244;28;20060;-70